Time;durP1;ratioP1;P1;durP2;ratioP2;P2;SDS_P1;SDS_P2;PMS_P1;PMS_P2;Temp;Humidity;BMP_temperature;BMP_pressure;BME280_temperature;BME280_humidity;BME280_pressure;Samples;Min_cycle;Max_cycle;Signal;HPM_P1;HPM_P2
2024/05/08 00:01:19;;;;;;;;;;;11.00;99.90;;;;;;5515680;25;19934;-70
2024/05/08 00:03:44;;;;;;;;;;;10.70;99.90;;;;;;5512962;26;20336;-68
2024/05/08 00:06:11;;;;;;;;;;;10.60;99.90;;;;;;5519760;26;19995;-69
2024/05/08 00:08:37;;;;;;;;;;;10.70;99.90;;;;;;5486970;26;20479;-69
2024/05/08 00:11:03;;;;;;;;;;;10.70;99.90;;;;;;5513906;26;20438;-69
2024/05/08 00:13:29;;;;;;;;;;;10.70;99.90;;;;;;5516516;26;19929;-69
2024/05/08 00:15:54;;;;;;;;;;;10.80;99.90;;;;;;5518798;26;19935;-69
2024/05/08 00:18:20;;;;;;;;;;;10.80;99.90;;;;;;5515932;25;19935;-70
2024/05/08 00:20:45;;;;;;;;;;;10.80;99.90;;;;;;5520482;26;19995;-69
2024/05/08 00:23:11;;;;;;;;;;;10.80;99.90;;;;;;5509682;26;19928;-69
2024/05/08 00:25:37;;;;;;;;;;;10.90;99.90;;;;;;5514767;25;19927;-70
2024/05/08 00:28:02;;;;;;;;;;;10.90;99.90;;;;;;5515990;26;19939;-69
2024/05/08 00:30:28;;;;;;;;;;;10.90;99.90;;;;;;5519792;26;19939;-69
2024/05/08 00:32:53;;;;;;;;;;;10.90;99.90;;;;;;5519632;26;19934;-69
2024/05/08 00:35:19;;;;;;;;;;;11.00;99.90;;;;;;5516397;26;20229;-69
2024/05/08 00:37:45;;;;;;;;;;;11.60;99.90;;;;;;5515114;25;19934;-69
2024/05/08 00:40:10;;;;;;;;;;;11.00;99.90;;;;;;5516387;26;19998;-70
2024/05/08 00:42:45;;;;;;;;;;;11.00;99.90;;;;;;5517198;25;19935;-70
2024/05/08 00:45:11;;;;;;;;;;;11.00;99.90;;;;;;5513351;26;19938;-69
2024/05/08 00:47:37;;;;;;;;;;;11.00;99.90;;;;;;5511523;26;20283;-69
2024/05/08 00:50:02;;;;;;;;;;;11.00;99.90;;;;;;5510944;25;19996;-70
2024/05/08 00:52:28;;;;;;;;;;;11.10;99.90;;;;;;5515960;25;19935;-69
2024/05/08 00:54:53;;;;;;;;;;;11.10;99.90;;;;;;5505110;26;19927;-69
2024/05/08 00:57:19;;;;;;;;;;;11.10;99.90;;;;;;5503293;26;20367;-69
2024/05/08 00:59:45;;;;;;;;;;;11.10;99.90;;;;;;5499259;26;20075;-69
2024/05/08 01:02:12;;;;;;;;;;;11.10;99.90;;;;;;5516744;25;19950;-70
2024/05/08 01:04:38;;;;;;;;;;;11.10;99.90;;;;;;5519796;26;19963;-69
2024/05/08 01:07:03;;;;;;;;;;;11.70;99.90;;;;;;5514074;26;19927;-69
2024/05/08 01:09:30;;;;;;;;;;;11.10;99.90;;;;;;5504363;25;19932;-69
2024/05/08 01:11:57;;;;;;;;;;;11.10;99.90;;;;;;5519197;26;19939;-69
2024/05/08 01:14:23;;;;;;;;;;;11.30;99.90;;;;;;5515192;26;19935;-70
2024/05/08 01:16:50;;;;;;;;;;;11.10;99.90;;;;;;5517891;25;19927;-69
2024/05/08 01:19:16;;;;;;;;;;;11.10;99.90;;;;;;5518696;26;19935;-69
2024/05/08 01:21:41;;;;;;;;;;;11.10;99.90;;;;;;5510281;26;19939;-69
2024/05/08 01:24:07;;;;;;;;;;;11.60;99.90;;;;;;5515412;26;19935;-70
2024/05/08 01:26:38;;;;;;;;;;;11.10;99.90;;;;;;5516309;25;19935;-69
2024/05/08 01:29:04;;;;;;;;;;;11.10;99.90;;;;;;5518372;25;19928;-69
2024/05/08 01:31:31;;;;;;;;;;;11.10;99.90;;;;;;5512814;26;19927;-70
2024/05/08 01:33:57;;;;;;;;;;;11.10;99.90;;;;;;5515711;26;19927;-69
2024/05/08 01:36:23;;;;;;;;;;;11.10;99.90;;;;;;5510247;25;19935;-69
2024/05/08 01:38:48;;;;;;;;;;;11.10;99.90;;;;;;5511498;26;19967;-69
2024/05/08 01:41:14;;;;;;;;;;;11.10;99.90;;;;;;5505112;25;19931;-70
2024/05/08 01:43:39;;;;;;;;;;;11.00;99.90;;;;;;5516618;26;19935;-70
2024/05/08 01:46:05;;;;;;;;;;;11.00;99.90;;;;;;5506189;26;19927;-70
2024/05/08 01:48:30;;;;;;;;;;;11.00;99.90;;;;;;5518968;25;19956;-69
2024/05/08 01:50:56;;;;;;;;;;;11.10;99.90;;;;;;5518729;26;19928;-69
2024/05/08 01:53:21;;;;;;;;;;;11.00;99.90;;;;;;5519236;26;19956;-69
2024/05/08 01:55:47;;;;;;;;;;;11.00;99.90;;;;;;5511425;26;19944;-69
2024/05/08 01:58:13;;;;;;;;;;;11.10;99.90;;;;;;5519429;25;20376;-70
2024/05/08 02:00:38;;;;;;;;;;;11.00;99.90;;;;;;5518325;26;19927;-69
2024/05/08 02:03:04;;;;;;;;;;;11.00;99.90;;;;;;5519549;26;19927;-70
2024/05/08 02:05:30;;;;;;;;;;;11.00;99.90;;;;;;5521726;26;20308;-70
2024/05/08 02:07:56;;;;;;;;;;;11.00;99.90;;;;;;5520892;25;19931;-70
2024/05/08 02:10:22;;;;;;;;;;;11.00;99.90;;;;;;5521739;26;20000;-70
2024/05/08 02:12:47;;;;;;;;;;;11.00;99.90;;;;;;5519117;26;20272;-69
2024/05/08 02:15:13;;;;;;;;;;;11.00;99.90;;;;;;5519792;25;19939;-70
2024/05/08 02:17:39;;;;;;;;;;;11.00;99.90;;;;;;5489751;26;19927;-70
2024/05/08 02:20:05;;;;;;;;;;;11.00;99.90;;;;;;5516079;26;19938;-69
2024/05/08 02:22:30;;;;;;;;;;;11.00;99.90;;;;;;5509754;26;19934;-70
2024/05/08 02:24:56;;;;;;;;;;;11.00;99.90;;;;;;5520617;25;19932;-70
2024/05/08 02:27:21;;;;;;;;;;;11.00;99.90;;;;;;5518766;25;20407;-69
2024/05/08 02:29:47;;;;;;;;;;;11.00;99.90;;;;;;5521307;26;19927;-70
2024/05/08 02:32:13;;;;;;;;;;;11.00;99.90;;;;;;5518125;26;19942;-69
2024/05/08 02:34:38;;;;;;;;;;;11.00;99.90;;;;;;5520524;25;20390;-70
2024/05/08 02:37:04;;;;;;;;;;;11.00;99.90;;;;;;5510369;26;19927;-69
2024/05/08 02:39:30;;;;;;;;;;;11.00;99.90;;;;;;5521072;26;19939;-70
2024/05/08 02:41:55;;;;;;;;;;;11.10;99.90;;;;;;5518766;25;19934;-70
2024/05/08 02:44:24;;;;;;;;;;;11.00;99.90;;;;;;5514953;26;19935;-69
2024/05/08 02:46:50;;;;;;;;;;;11.00;99.90;;;;;;5521396;26;19927;-69
2024/05/08 02:49:16;;;;;;;;;;;11.50;99.90;;;;;;5516350;25;19927;-69
2024/05/08 02:51:41;;;;;;;;;;;11.00;99.90;;;;;;5509673;26;20288;-69
2024/05/08 02:54:07;;;;;;;;;;;11.00;99.90;;;;;;5520537;26;19927;-69
2024/05/08 02:56:32;;;;;;;;;;;11.00;99.90;;;;;;5486190;26;19935;-69
2024/05/08 02:58:58;;;;;;;;;;;11.00;99.90;;;;;;5518152;26;20452;-69
2024/05/08 03:01:23;;;;;;;;;;;11.10;99.90;;;;;;5519375;25;19939;-69
2024/05/08 03:03:49;;;;;;;;;;;11.00;99.90;;;;;;5511948;26;19934;-70
2024/05/08 03:06:15;;;;;;;;;;;11.00;99.90;;;;;;5513663;26;19939;-70
2024/05/08 03:08:41;;;;;;;;;;;11.00;99.90;;;;;;5510129;25;19935;-70
2024/05/08 03:11:07;;;;;;;;;;;11.00;99.90;;;;;;5520573;26;19928;-69
2024/05/08 03:13:33;;;;;;;;;;;11.00;99.90;;;;;;5521313;26;20003;-69
2024/05/08 03:15:59;;;;;;;;;;;11.70;99.90;;;;;;5520318;26;19935;-69
2024/05/08 03:18:24;;;;;;;;;;;11.00;99.90;;;;;;5516700;25;19927;-70
2024/05/08 03:20:50;;;;;;;;;;;11.00;99.90;;;;;;5521299;26;20035;-69
2024/05/08 03:23:16;;;;;;;;;;;11.70;99.90;;;;;;5518146;26;19936;-69
2024/05/08 03:25:41;;;;;;;;;;;11.00;99.90;;;;;;5507193;25;19928;-69
2024/05/08 03:28:07;;;;;;;;;;;11.00;99.90;;;;;;5516508;26;20295;-70
2024/05/08 03:30:33;;;;;;;;;;;11.00;99.90;;;;;;5518242;25;20283;-69
2024/05/08 03:32:58;;;;;;;;;;;11.00;99.90;;;;;;5521001;26;19994;-69
2024/05/08 03:35:24;;;;;;;;;;;11.00;99.90;;;;;;5519398;25;19927;-69
2024/05/08 03:37:50;;;;;;;;;;;11.00;99.90;;;;;;5520902;26;19979;-70
2024/05/08 03:40:15;;;;;;;;;;;11.10;99.90;;;;;;5518921;26;19970;-70
2024/05/08 03:42:41;;;;;;;;;;;11.10;99.90;;;;;;5520010;25;19939;-69
2024/05/08 03:45:10;;;;;;;;;;;11.20;99.90;;;;;;5513723;26;19928;-70
2024/05/08 03:47:35;;;;;;;;;;;11.00;99.90;;;;;;5520475;26;19934;-70
2024/05/08 03:50:01;;;;;;;;;;;11.00;99.90;;;;;;5516846;25;19927;-69
2024/05/08 03:52:27;;;;;;;;;;;11.00;99.90;;;;;;5515782;26;20324;-69
2024/05/08 03:54:52;;;;;;;;;;;10.90;99.90;;;;;;5517647;26;19939;-70
2024/05/08 03:57:38;;;;;;;;;;;10.80;99.90;;;;;;5490979;26;19946;-69
2024/05/08 04:00:04;;;;;;;;;;;10.70;99.90;;;;;;5514278;25;19927;-69
2024/05/08 04:02:31;;;;;;;;;;;10.60;99.90;;;;;;5511557;25;19935;-69
2024/05/08 04:04:57;;;;;;;;;;;10.50;99.90;;;;;;5519029;26;20374;-69
2024/05/08 04:07:22;;;;;;;;;;;10.40;99.90;;;;;;5515068;26;19928;-70
2024/05/08 04:09:48;;;;;;;;;;;10.20;99.90;;;;;;5516831;25;20354;-70
2024/05/08 04:12:14;;;;;;;;;;;10.10;99.90;;;;;;5517562;26;19927;-69
2024/05/08 04:14:40;;;;;;;;;;;10.00;99.90;;;;;;5517626;26;20260;-70
2024/05/08 04:17:06;;;;;;;;;;;9.90;99.90;;;;;;5516342;25;20627;-70
2024/05/08 04:19:32;;;;;;;;;;;9.80;99.90;;;;;;5512999;26;19938;-70
2024/05/08 04:22:11;;;;;;;;;;;9.70;99.90;;;;;;5519120;26;19955;-69
2024/05/08 04:24:39;;;;;;;;;;;9.70;99.90;;;;;;5517709;26;19935;-69
2024/05/08 04:27:05;;;;;;;;;;;9.60;99.90;;;;;;5513124;25;19931;-69
2024/05/08 04:29:31;;;;;;;;;;;9.40;99.90;;;;;;5519643;26;19934;-69
2024/05/08 04:31:56;;;;;;;;;;;9.60;99.90;;;;;;5517572;26;19967;-68
2024/05/08 04:34:22;;;;;;;;;;;9.60;99.90;;;;;;5516107;26;19935;-67
2024/05/08 04:36:47;;;;;;;;;;;9.60;99.90;;;;;;5518857;25;20359;-68
2024/05/08 04:39:13;;;;;;;;;;;9.60;99.90;;;;;;5519104;26;20002;-67
2024/05/08 04:41:39;;;;;;;;;;;9.60;99.90;;;;;;5519134;25;19935;-67
2024/05/08 04:44:04;;;;;;;;;;;9.60;99.90;;;;;;5502640;26;19942;-68
2024/05/08 04:46:30;;;;;;;;;;;9.60;99.90;;;;;;5515798;26;19942;-67
2024/05/08 04:48:56;;;;;;;;;;;9.60;99.90;;;;;;5519205;26;19927;-68
2024/05/08 04:51:21;;;;;;;;;;;9.70;99.90;;;;;;5518005;25;20293;-68
2024/05/08 04:53:47;;;;;;;;;;;9.70;99.90;;;;;;5519658;25;19971;-67
2024/05/08 04:56:12;;;;;;;;;;;9.70;99.90;;;;;;5517480;26;20268;-68
2024/05/08 04:58:38;;;;;;;;;;;9.80;99.90;;;;;;5516735;26;19934;-68
2024/05/08 05:01:03;;;;;;;;;;;10.00;99.90;;;;;;5518526;25;19935;-67
2024/05/08 05:03:29;;;;;;;;;;;10.20;99.90;;;;;;5516432;26;20399;-68
2024/05/08 05:05:55;;;;;;;;;;;10.80;99.90;;;;;;5519379;26;19928;-68
2024/05/08 05:08:20;;;;;;;;;;;11.60;99.90;;;;;;5518289;26;19927;-68
2024/05/08 05:10:46;;;;;;;;;;;13.20;99.90;;;;;;5515681;25;19935;-68
2024/05/08 05:13:12;;;;;;;;;;;13.20;99.90;;;;;;5516928;25;19939;-68
2024/05/08 05:15:38;;;;;;;;;;;14.10;99.90;;;;;;5518607;26;19935;-68
2024/05/08 05:18:04;;;;;;;;;;;15.00;99.90;;;;;;5514459;26;19932;-68
2024/05/08 05:20:30;;;;;;;;;;;15.80;99.90;;;;;;5514636;25;19927;-68
2024/05/08 05:22:56;;;;;;;;;;;16.50;99.90;;;;;;5515927;26;19937;-68
2024/05/08 05:25:21;;;;;;;;;;;17.10;99.90;;;;;;5510181;26;19927;-68
2024/05/08 05:27:47;;;;;;;;;;;17.90;99.90;;;;;;5518006;26;20271;-69
2024/05/08 05:30:12;;;;;;;;;;;18.50;99.90;;;;;;5518092;26;19927;-68
2024/05/08 05:35:22;;;;;;;;;;;19.50;99.90;;;;;;5514773;25;19975;-69
2024/05/08 05:37:48;;;;;;;;;;;20.10;99.90;;;;;;5517737;26;20275;-69
2024/05/08 05:40:13;;;;;;;;;;;20.60;99.90;;;;;;5514652;25;19935;-69
2024/05/08 05:48:14;;;;;;;;;;;21.60;96.20;;;;;;5515629;26;19927;-69
2024/05/08 05:50:39;;;;;;;;;;;21.80;95.60;;;;;;5511987;25;19928;-69
2024/05/08 05:53:06;;;;;;;;;;;22.10;95.60;;;;;;5518371;26;20159;-69
2024/05/08 05:55:32;;;;;;;;;;;22.50;94.00;;;;;;5517459;26;19928;-69
2024/05/08 05:57:58;;;;;;;;;;;22.90;92.40;;;;;;5518031;26;19962;-70
2024/05/08 06:00:26;;;;;;;;;;;23.30;93.60;;;;;;5514222;25;19934;-69
2024/05/08 06:02:52;;;;;;;;;;;23.50;91.20;;;;;;5511756;25;19995;-69
2024/05/08 06:05:17;;;;;;;;;;;23.60;92.10;;;;;;5517510;26;20332;-69
2024/05/08 06:07:43;;;;;;;;;;;23.00;92.10;;;;;;5517116;26;19936;-69
2024/05/08 06:10:09;;;;;;;;;;;22.00;91.40;;;;;;5515280;25;19935;-69
2024/05/08 06:12:35;;;;;;;;;;;21.10;93.30;;;;;;5518189;26;19939;-69
2024/05/08 06:15:02;;;;;;;;;;;20.50;95.00;;;;;;5515219;26;19940;-69
2024/05/08 06:17:27;;;;;;;;;;;20.10;95.80;;;;;;5517015;26;19935;-69
2024/05/08 06:19:53;;;;;;;;;;;20.00;97.50;;;;;;5517623;25;19928;-69
2024/05/08 06:22:18;;;;;;;;;;;19.80;97.40;;;;;;5517649;26;20003;-69
2024/05/08 06:24:44;;;;;;;;;;;19.80;96.70;;;;;;5513301;26;19967;-69
2024/05/08 06:27:09;;;;;;;;;;;19.80;97.50;;;;;;5481678;25;20383;-69
2024/05/08 06:29:35;;;;;;;;;;;20.00;97.80;;;;;;5485934;26;19928;-69
2024/05/08 06:32:01;;;;;;;;;;;19.80;97.40;;;;;;5515347;26;20301;-69
2024/05/08 06:34:26;;;;;;;;;;;20.10;97.60;;;;;;5514870;26;19981;-69
2024/05/08 06:36:52;;;;;;;;;;;20.30;98.20;;;;;;5519533;25;19928;-69
2024/05/08 06:39:17;;;;;;;;;;;20.20;96.60;;;;;;5517823;26;19967;-69
2024/05/08 06:41:43;;;;;;;;;;;20.40;96.80;;;;;;5521197;25;19927;-70
2024/05/08 06:44:09;;;;;;;;;;;20.90;95.90;;;;;;5521624;26;19956;-69
2024/05/08 06:46:38;;;;;;;;;;;21.40;95.60;;;;;;5514951;26;19995;-69
2024/05/08 06:49:04;;;;;;;;;;;21.40;94.90;;;;;;5519327;26;19927;-69
2024/05/08 06:51:29;;;;;;;;;;;21.20;95.30;;;;;;5518221;25;20003;-69
2024/05/08 06:53:55;;;;;;;;;;;20.70;95.00;;;;;;5521275;26;19940;-68
2024/05/08 06:56:20;;;;;;;;;;;20.30;97.10;;;;;;5520997;26;19927;-69
2024/05/08 06:58:46;;;;;;;;;;;19.90;97.50;;;;;;5521048;25;20334;-69
2024/05/08 07:01:12;;;;;;;;;;;19.50;97.10;;;;;;5520466;26;19927;-69
2024/05/08 07:03:37;;;;;;;;;;;19.10;98.10;;;;;;5486616;26;19956;-69
2024/05/08 07:06:03;;;;;;;;;;;18.80;98.10;;;;;;5521173;26;19980;-68
2024/05/08 07:08:29;;;;;;;;;;;18.70;98.80;;;;;;5517859;25;19934;-69
2024/05/08 07:10:54;;;;;;;;;;;18.50;99.40;;;;;;5519077;26;19931;-68
2024/05/08 07:13:21;;;;;;;;;;;18.10;99.40;;;;;;5520598;26;19945;-68
2024/05/08 07:15:48;;;;;;;;;;;17.80;99.90;;;;;;5516803;26;19939;-68
2024/05/08 07:18:13;;;;;;;;;;;17.50;99.90;;;;;;5516750;25;20212;-68
2024/05/08 07:20:39;;;;;;;;;;;17.40;99.90;;;;;;5521445;26;19955;-68
2024/05/08 07:23:04;;;;;;;;;;;17.20;99.90;;;;;;5518947;26;19939;-68
2024/05/08 07:25:30;;;;;;;;;;;17.00;99.90;;;;;;5517838;26;19943;-68
2024/05/08 07:27:56;;;;;;;;;;;16.60;99.90;;;;;;5516843;25;19928;-68
2024/05/08 07:30:22;;;;;;;;;;;16.40;99.90;;;;;;5520383;26;20081;-68
2024/05/08 07:32:48;;;;;;;;;;;16.40;99.90;;;;;;5521159;26;19938;-68
2024/05/08 07:35:13;;;;;;;;;;;16.30;99.90;;;;;;5519941;25;20007;-68
2024/05/08 07:37:39;;;;;;;;;;;16.10;99.90;;;;;;5485418;26;19939;-68
2024/05/08 07:40:05;;;;;;;;;;;15.90;99.90;;;;;;5521024;26;19939;-68
2024/05/08 07:42:31;;;;;;;;;;;15.80;99.90;;;;;;5519435;25;20399;-68
2024/05/08 07:44:56;;;;;;;;;;;15.80;99.90;;;;;;5520835;26;19927;-68
2024/05/08 07:47:22;;;;;;;;;;;15.70;99.90;;;;;;5517010;26;19944;-68
2024/05/08 07:49:47;;;;;;;;;;;15.70;99.90;;;;;;5520941;26;19934;-68
2024/05/08 07:52:13;;;;;;;;;;;15.70;99.90;;;;;;5519030;25;20473;-68
2024/05/08 07:54:38;;;;;;;;;;;15.80;99.90;;;;;;5520431;26;19927;-68
2024/05/08 07:57:04;;;;;;;;;;;15.80;99.90;;;;;;5520223;26;20000;-68
2024/05/08 07:59:30;;;;;;;;;;;15.90;99.90;;;;;;5515660;25;20256;-68
2024/05/08 08:01:55;;;;;;;;;;;15.80;99.90;;;;;;5518193;26;20418;-68
2024/05/08 08:04:21;;;;;;;;;;;15.90;99.90;;;;;;5518284;26;19935;-68
2024/05/08 08:06:46;;;;;;;;;;;16.00;99.90;;;;;;5503684;26;20344;-70
2024/05/08 08:09:12;;;;;;;;;;;16.10;99.90;;;;;;5515097;25;19934;-68
2024/05/08 08:11:41;;;;;;;;;;;16.10;99.90;;;;;;5521142;26;19943;-68
2024/05/08 08:14:07;;;;;;;;;;;16.40;99.90;;;;;;5515521;26;19928;-68
2024/05/08 08:16:33;;;;;;;;;;;16.30;99.90;;;;;;5517517;26;19935;-68
2024/05/08 08:18:59;;;;;;;;;;;16.60;99.90;;;;;;5518699;25;19934;-68
2024/05/08 08:21:25;;;;;;;;;;;16.70;99.90;;;;;;5486721;26;19928;-68
2024/05/08 08:23:50;;;;;;;;;;;16.90;99.90;;;;;;5510529;26;19934;-68
2024/05/08 08:26:16;;;;;;;;;;;16.90;99.90;;;;;;5518651;25;19927;-68
2024/05/08 08:28:42;;;;;;;;;;;17.00;99.90;;;;;;5517889;26;19927;-68
2024/05/08 08:31:08;;;;;;;;;;;17.10;99.90;;;;;;5520221;26;19927;-68
2024/05/08 08:33:33;;;;;;;;;;;17.10;99.90;;;;;;5519542;26;19934;-68
2024/05/08 08:35:59;;;;;;;;;;;17.20;99.90;;;;;;5519002;25;19928;-68
2024/05/08 08:38:24;;;;;;;;;;;17.10;99.90;;;;;;5518920;26;20066;-68
2024/05/08 08:40:50;;;;;;;;;;;17.20;99.90;;;;;;5489092;25;19928;-68
2024/05/08 08:43:20;;;;;;;;;;;17.30;99.90;;;;;;5517293;26;20433;-68
2024/05/08 08:45:49;;;;;;;;;;;17.40;99.90;;;;;;5519762;26;19979;-68
2024/05/08 08:48:15;;;;;;;;;;;17.50;99.90;;;;;;5516622;26;20018;-68
2024/05/08 08:50:41;;;;;;;;;;;17.70;99.90;;;;;;5516854;25;19935;-68
2024/05/08 08:53:07;;;;;;;;;;;17.60;99.90;;;;;;5518525;26;19963;-68
2024/05/08 08:55:33;;;;;;;;;;;17.80;99.90;;;;;;5515773;26;19934;-68
2024/05/08 08:57:59;;;;;;;;;;;17.70;99.90;;;;;;5517732;25;19927;-68
2024/05/08 09:00:25;;;;;;;;;;;17.80;99.90;;;;;;5518136;26;20379;-68
2024/05/08 09:03:07;;;;;;;;;;;17.70;99.90;;;;;;5510492;26;20379;-68
2024/05/08 09:05:33;;;;;;;;;;;17.70;99.90;;;;;;5514622;25;19928;-68
2024/05/08 09:07:59;;;;;;;;;;;17.80;99.90;;;;;;5517180;26;20316;-68
2024/05/08 09:10:24;;;;;;;;;;;18.10;99.90;;;;;;5519116;26;19927;-68
2024/05/08 09:12:50;;;;;;;;;;;18.30;99.90;;;;;;5519523;26;19939;-68
2024/05/08 09:15:16;;;;;;;;;;;18.30;99.90;;;;;;5515761;26;19928;-68
2024/05/08 09:17:42;;;;;;;;;;;18.40;99.90;;;;;;5510848;25;19933;-68
2024/05/08 09:20:09;;;;;;;;;;;18.50;99.90;;;;;;5486358;26;20364;-68
2024/05/08 09:22:35;;;;;;;;;;;18.40;99.90;;;;;;5516558;26;19927;-68
2024/05/08 09:25:00;;;;;;;;;;;18.30;99.90;;;;;;5518615;25;19935;-68
2024/05/08 09:27:29;;;;;;;;;;;18.30;99.90;;;;;;5515307;26;19935;-68
2024/05/08 09:29:55;;;;;;;;;;;18.30;99.90;;;;;;5511848;26;20004;-68
2024/05/08 09:32:23;;;;;;;;;;;18.30;99.90;;;;;;5486704;26;20340;-68
2024/05/08 09:34:55;;;;;;;;;;;18.40;99.90;;;;;;5508838;25;20327;-68
2024/05/08 09:37:21;;;;;;;;;;;18.30;99.90;;;;;;5515888;26;19972;-68
2024/05/08 09:39:48;;;;;;;;;;;18.20;99.90;;;;;;5516892;26;20367;-68
2024/05/08 09:42:15;;;;;;;;;;;18.20;99.90;;;;;;5513418;25;19927;-67
2024/05/08 09:44:40;;;;;;;;;;;18.00;99.90;;;;;;5476885;26;19936;-68
2024/05/08 09:47:11;;;;;;;;;;;17.90;99.90;;;;;;5515850;26;19935;-68
2024/05/08 09:49:40;;;;;;;;;;;18.00;99.90;;;;;;5513800;26;20343;-68
2024/05/08 09:52:12;;;;;;;;;;;18.10;99.90;;;;;;5518022;25;19939;-68
2024/05/08 09:54:39;;;;;;;;;;;18.30;99.90;;;;;;5486131;26;19996;-68
2024/05/08 09:57:06;;;;;;;;;;;18.40;99.90;;;;;;5518356;26;19934;-68
2024/05/08 09:59:32;;;;;;;;;;;18.40;99.90;;;;;;5515006;25;20375;-68
2024/05/08 10:01:58;;;;;;;;;;;18.50;99.90;;;;;;5518989;26;19935;-68
2024/05/08 10:04:24;;;;;;;;;;;18.40;99.90;;;;;;5517368;26;19942;-67
2024/05/08 10:06:53;;;;;;;;;;;18.40;99.90;;;;;;5512105;25;19927;-68
2024/05/08 10:09:25;;;;;;;;;;;18.50;99.90;;;;;;5517834;26;19935;-68
2024/05/08 10:12:11;;;;;;;;;;;18.60;99.90;;;;;;5519968;26;19935;-67
2024/05/08 10:14:37;;;;;;;;;;;18.50;99.90;;;;;;5520516;26;19935;-67
2024/05/08 10:17:09;;;;;;;;;;;18.40;99.90;;;;;;5513123;25;19935;-67
2024/05/08 10:19:42;;;;;;;;;;;18.40;99.90;;;;;;5519349;26;19939;-67
2024/05/08 10:22:08;;;;;;;;;;;18.50;99.90;;;;;;5518828;26;19939;-68
2024/05/08 10:24:33;;;;;;;;;;;18.70;99.90;;;;;;5520128;26;19931;-68
2024/05/08 10:27:01;;;;;;;;;;;18.80;99.90;;;;;;5518470;25;19927;-68
2024/05/08 10:29:26;;;;;;;;;;;18.80;99.90;;;;;;5518738;26;19934;-67
2024/05/08 10:31:52;;;;;;;;;;;18.80;99.90;;;;;;5521939;26;19959;-69
2024/05/08 10:34:18;;;;;;;;;;;18.90;99.90;;;;;;5520814;26;19934;-69
2024/05/08 10:36:44;;;;;;;;;;;18.90;99.90;;;;;;5520610;25;19959;-69
2024/05/08 10:39:11;;;;;;;;;;;19.10;99.90;;;;;;5520984;26;19995;-69
2024/05/08 10:41:37;;;;;;;;;;;19.20;99.90;;;;;;5520669;25;19934;-69
2024/05/08 10:44:03;;;;;;;;;;;19.30;99.90;;;;;;5521566;26;19959;-69
2024/05/08 10:46:29;;;;;;;;;;;19.20;99.90;;;;;;5516689;26;19931;-69
2024/05/08 10:48:55;;;;;;;;;;;19.20;99.90;;;;;;5520654;25;20041;-69
2024/05/08 10:51:21;;;;;;;;;;;19.30;99.90;;;;;;5520873;26;19959;-69
2024/05/08 10:53:53;;;;;;;;;;;19.40;99.90;;;;;;5521350;26;20282;-70
2024/05/08 10:56:22;;;;;;;;;;;19.40;99.90;;;;;;5516350;26;19939;-70
2024/05/08 10:58:48;;;;;;;;;;;19.20;99.90;;;;;;5520609;25;19934;-70
2024/05/08 11:01:14;;;;;;;;;;;19.10;99.90;;;;;;5518512;26;20411;-69
2024/05/08 11:03:43;;;;;;;;;;;19.00;99.90;;;;;;5521386;26;19942;-69
2024/05/08 11:06:08;;;;;;;;;;;19.00;99.90;;;;;;5519144;26;19938;-69
2024/05/08 11:08:36;;;;;;;;;;;19.10;99.90;;;;;;5484701;26;20451;-69
2024/05/08 11:11:02;;;;;;;;;;;19.00;99.90;;;;;;5521700;26;19927;-69
2024/05/08 11:13:28;;;;;;;;;;;18.90;99.90;;;;;;5518653;26;19937;-70
2024/05/08 11:15:54;;;;;;;;;;;18.90;99.80;;;;;;5520167;25;19927;-69
2024/05/08 11:18:20;;;;;;;;;;;19.00;99.90;;;;;;5515529;26;19927;-69
2024/05/08 11:20:47;;;;;;;;;;;18.90;99.90;;;;;;5520803;26;20383;-69
2024/05/08 11:23:12;;;;;;;;;;;18.80;99.90;;;;;;5518987;26;19980;-69
2024/05/08 11:25:38;;;;;;;;;;;18.70;99.90;;;;;;5517096;25;19939;-69
2024/05/08 11:28:06;;;;;;;;;;;18.70;99.90;;;;;;5519770;26;19928;-70
2024/05/08 11:30:32;;;;;;;;;;;18.80;99.90;;;;;;5519226;26;19931;-69
2024/05/08 11:33:00;;;;;;;;;;;18.80;99.90;;;;;;5521196;26;20379;-69
2024/05/08 11:35:28;;;;;;;;;;;18.80;99.90;;;;;;5516748;25;19936;-70
2024/05/08 11:37:54;;;;;;;;;;;18.70;99.90;;;;;;5518682;26;19934;-69
2024/05/08 11:40:20;;;;;;;;;;;18.70;99.90;;;;;;5520244;26;19928;-69
2024/05/08 11:42:45;;;;;;;;;;;18.60;99.90;;;;;;5520426;25;20351;-70
2024/05/08 11:45:11;;;;;;;;;;;18.50;99.90;;;;;;5518627;26;19955;-70
2024/05/08 11:47:37;;;;;;;;;;;18.40;99.90;;;;;;5519566;26;19939;-69
2024/05/08 11:50:03;;;;;;;;;;;18.40;99.90;;;;;;5515505;25;19935;-69
2024/05/08 11:52:28;;;;;;;;;;;18.40;99.90;;;;;;5517168;26;19955;-70
2024/05/08 11:54:54;;;;;;;;;;;18.30;99.90;;;;;;5518526;26;19933;-69
2024/05/08 11:57:20;;;;;;;;;;;18.20;99.90;;;;;;5519882;26;19996;-70
2024/05/08 11:59:45;;;;;;;;;;;18.20;99.90;;;;;;5520212;25;19934;-69
2024/05/08 12:02:11;;;;;;;;;;;18.20;99.90;;;;;;5518852;25;20337;-69
2024/05/08 12:04:37;;;;;;;;;;;18.20;99.90;;;;;;5517819;26;19928;-69
2024/05/08 12:07:02;;;;;;;;;;;18.10;99.90;;;;;;5505590;26;19934;-69
2024/05/08 12:09:28;;;;;;;;;;;18.10;99.90;;;;;;5517330;25;19935;-70
2024/05/08 12:11:54;;;;;;;;;;;18.10;99.90;;;;;;5518817;26;19934;-70
2024/05/08 12:14:20;;;;;;;;;;;18.20;99.90;;;;;;5519547;26;19928;-69
2024/05/08 12:16:45;;;;;;;;;;;18.40;99.90;;;;;;5517466;26;19934;-69
2024/05/08 12:19:11;;;;;;;;;;;18.60;99.90;;;;;;5519760;25;20371;-70
2024/05/08 12:21:37;;;;;;;;;;;18.70;99.90;;;;;;5487913;26;19934;-69
2024/05/08 12:24:03;;;;;;;;;;;18.80;99.90;;;;;;5518612;26;19927;-69
2024/05/08 12:26:29;;;;;;;;;;;18.90;99.90;;;;;;5517966;26;19927;-69
2024/05/08 12:28:54;;;;;;;;;;;19.00;99.90;;;;;;5519953;25;20267;-69
2024/05/08 12:31:20;;;;;;;;;;;19.10;99.90;;;;;;5515470;26;19934;-70
2024/05/08 12:33:45;;;;;;;;;;;19.20;99.90;;;;;;5517783;26;20372;-69
2024/05/08 12:36:11;;;;;;;;;;;19.30;99.90;;;;;;5517372;25;20336;-69
2024/05/08 12:38:37;;;;;;;;;;;19.40;99.90;;;;;;5518141;25;19939;-70
2024/05/08 12:41:02;;;;;;;;;;;19.50;99.90;;;;;;5520003;26;19927;-69
2024/05/08 12:43:28;;;;;;;;;;;19.50;99.90;;;;;;5482083;26;19932;-69
2024/05/08 12:45:53;;;;;;;;;;;19.60;99.90;;;;;;5517476;26;19935;-69
2024/05/08 12:48:19;;;;;;;;;;;19.80;99.90;;;;;;5514431;25;19935;-71
2024/05/08 12:50:47;;;;;;;;;;;19.80;99.90;;;;;;5518239;26;19927;-70
2024/05/08 12:53:13;;;;;;;;;;;19.80;99.90;;;;;;5520027;26;20402;-69
2024/05/08 12:55:39;;;;;;;;;;;19.70;99.90;;;;;;5518182;25;19942;-70
2024/05/08 12:58:05;;;;;;;;;;;19.90;99.90;;;;;;5520047;26;19927;-69
2024/05/08 13:00:30;;;;;;;;;;;19.90;99.90;;;;;;5516778;26;19928;-69
2024/05/08 13:02:56;;;;;;;;;;;19.90;99.90;;;;;;5515054;25;20375;-69
2024/05/08 13:05:21;;;;;;;;;;;19.90;99.90;;;;;;5518390;26;19980;-70
2024/05/08 13:07:47;;;;;;;;;;;19.90;99.90;;;;;;5519678;26;19936;-69
2024/05/08 13:10:12;;;;;;;;;;;19.90;99.90;;;;;;5519661;26;19935;-69
2024/05/08 13:12:38;;;;;;;;;;;19.80;99.90;;;;;;5518055;25;20267;-70
2024/05/08 13:15:04;;;;;;;;;;;19.80;99.90;;;;;;5487056;26;19928;-69
2024/05/08 13:17:29;;;;;;;;;;;19.90;99.90;;;;;;5517641;26;19928;-69
2024/05/08 13:19:55;;;;;;;;;;;19.80;99.50;;;;;;5520094;26;19928;-69
2024/05/08 13:22:21;;;;;;;;;;;19.90;99.90;;;;;;5516032;25;19939;-70
2024/05/08 13:24:48;;;;;;;;;;;20.00;99.40;;;;;;5519327;26;19980;-70
2024/05/08 13:27:14;;;;;;;;;;;20.10;99.90;;;;;;5517609;25;19935;-70
2024/05/08 13:29:40;;;;;;;;;;;20.10;99.70;;;;;;5518402;26;19927;-70
2024/05/08 13:32:05;;;;;;;;;;;20.10;99.90;;;;;;5517859;26;19941;-70
2024/05/08 13:34:31;;;;;;;;;;;20.10;99.90;;;;;;5516677;26;19927;-69
2024/05/08 13:36:57;;;;;;;;;;;20.20;99.90;;;;;;5516637;25;19934;-70
2024/05/08 13:39:22;;;;;;;;;;;20.30;99.90;;;;;;5516015;25;19927;-70
2024/05/08 13:41:48;;;;;;;;;;;20.50;99.90;;;;;;5518890;26;19935;-69
2024/05/08 13:44:15;;;;;;;;;;;20.50;99.60;;;;;;5517146;26;20382;-69
2024/05/08 13:46:41;;;;;;;;;;;20.50;97.30;;;;;;5513085;25;20451;-69
2024/05/08 13:49:06;;;;;;;;;;;20.50;99.00;;;;;;5522589;26;19935;-69
2024/05/08 13:51:32;;;;;;;;;;;20.40;98.70;;;;;;5520730;26;19930;-70
2024/05/08 13:53:57;;;;;;;;;;;20.30;99.10;;;;;;5522459;26;19939;-69
2024/05/08 13:56:23;;;;;;;;;;;20.20;99.90;;;;;;5488152;26;19931;-70
2024/05/08 13:58:48;;;;;;;;;;;20.30;99.90;;;;;;5522122;26;20004;-69
2024/05/08 14:01:15;;;;;;;;;;;20.40;99.80;;;;;;5520199;26;19939;-69
2024/05/08 14:03:40;;;;;;;;;;;20.50;99.90;;;;;;5519687;25;19955;-69
2024/05/08 14:06:06;;;;;;;;;;;20.60;99.90;;;;;;5520145;26;19934;-70
2024/05/08 14:08:32;;;;;;;;;;;20.60;99.40;;;;;;5517218;26;19938;-69
2024/05/08 14:10:57;;;;;;;;;;;20.50;99.30;;;;;;5520165;26;19935;-70
2024/05/08 14:13:23;;;;;;;;;;;20.50;99.90;;;;;;5519019;25;19980;-69
2024/05/08 14:15:48;;;;;;;;;;;20.50;99.40;;;;;;5519527;26;19943;-70
2024/05/08 14:18:14;;;;;;;;;;;20.50;99.90;;;;;;5519328;26;20371;-69
2024/05/08 14:20:40;;;;;;;;;;;20.40;99.90;;;;;;5519444;25;19928;-69